sensor_id;sensor_type;location;lat;lon;timestamp;P1;durP1;ratioP1;P2;durP2;ratioP2
31114;SDS011;17764;47.152;9.828;2022-07-23T00:01:35;3.47;;;3.17;;
31114;SDS011;17764;47.152;9.828;2022-07-23T00:04:01;3.50;;;3.20;;
31114;SDS011;17764;47.152;9.828;2022-07-23T00:06:27;3.70;;;3.40;;
31114;SDS011;17764;47.152;9.828;2022-07-23T00:08:53;4.00;;;3.60;;
31114;SDS011;17764;47.152;9.828;2022-07-23T00:11:19;3.83;;;3.53;;
31114;SDS011;17764;47.152;9.828;2022-07-23T00:13:47;4.38;;;3.97;;
31114;SDS011;17764;47.152;9.828;2022-07-23T00:16:13;4.55;;;4.10;;
31114;SDS011;17764;47.152;9.828;2022-07-23T00:18:39;4.13;;;3.72;;
31114;SDS011;17764;47.152;9.828;2022-07-23T00:21:05;3.65;;;3.35;;
31114;SDS011;17764;47.152;9.828;2022-07-23T00:23:31;3.55;;;3.22;;
31114;SDS011;17764;47.152;9.828;2022-07-23T00:25:57;3.45;;;3.25;;
31114;SDS011;17764;47.152;9.828;2022-07-23T00:28:23;3.60;;;3.30;;
31114;SDS011;17764;47.152;9.828;2022-07-23T00:30:49;3.30;;;3.00;;
31114;SDS011;17764;47.152;9.828;2022-07-23T00:33:15;3.35;;;3.10;;
31114;SDS011;17764;47.152;9.828;2022-07-23T00:35:41;3.35;;;3.00;;
31114;SDS011;17764;47.152;9.828;2022-07-23T00:38:08;3.30;;;3.00;;
31114;SDS011;17764;47.152;9.828;2022-07-23T00:40:34;3.30;;;3.00;;
31114;SDS011;17764;47.152;9.828;2022-07-23T00:43:00;4.28;;;3.40;;
31114;SDS011;17764;47.152;9.828;2022-07-23T00:45:26;4.32;;;3.60;;
31114;SDS011;17764;47.152;9.828;2022-07-23T00:47:52;6.07;;;4.50;;
31114;SDS011;17764;47.152;9.828;2022-07-23T00:50:19;7.43;;;4.80;;
31114;SDS011;17764;47.152;9.828;2022-07-23T00:52:45;9.38;;;5.10;;
31114;SDS011;17764;47.152;9.828;2022-07-23T00:55:11;8.23;;;4.75;;
31114;SDS011;17764;47.152;9.828;2022-07-23T00:57:38;8.18;;;5.03;;
31114;SDS011;17764;47.152;9.828;2022-07-23T01:00:06;9.15;;;5.43;;
31114;SDS011;17764;47.152;9.828;2022-07-23T01:02:32;7.32;;;4.78;;
31114;SDS011;17764;47.152;9.828;2022-07-23T01:04:58;6.60;;;4.75;;
31114;SDS011;17764;47.152;9.828;2022-07-23T01:07:24;5.75;;;4.95;;
31114;SDS011;17764;47.152;9.828;2022-07-23T01:09:51;7.53;;;5.00;;
31114;SDS011;17764;47.152;9.828;2022-07-23T01:12:17;11.23;;;5.30;;
31114;SDS011;17764;47.152;9.828;2022-07-23T01:14:43;8.48;;;5.30;;
31114;SDS011;17764;47.152;9.828;2022-07-23T01:17:09;7.30;;;5.60;;
31114;SDS011;17764;47.152;9.828;2022-07-23T01:19:35;10.98;;;4.97;;
31114;SDS011;17764;47.152;9.828;2022-07-23T01:22:03;9.48;;;5.40;;
31114;SDS011;17764;47.152;9.828;2022-07-23T01:24:29;5.22;;;4.63;;
31114;SDS011;17764;47.152;9.828;2022-07-23T01:26:55;6.65;;;5.40;;
31114;SDS011;17764;47.152;9.828;2022-07-23T01:29:21;5.97;;;4.40;;
31114;SDS011;17764;47.152;9.828;2022-07-23T01:31:47;7.05;;;4.85;;
31114;SDS011;17764;47.152;9.828;2022-07-23T01:34:14;6.63;;;4.78;;
31114;SDS011;17764;47.152;9.828;2022-07-23T01:36:39;5.35;;;4.32;;
31114;SDS011;17764;47.152;9.828;2022-07-23T01:39:06;5.25;;;4.25;;
31114;SDS011;17764;47.152;9.828;2022-07-23T01:41:32;7.55;;;4.03;;
31114;SDS011;17764;47.152;9.828;2022-07-23T01:43:58;5.28;;;3.63;;
31114;SDS011;17764;47.152;9.828;2022-07-23T01:46:24;3.38;;;3.08;;
31114;SDS011;17764;47.152;9.828;2022-07-23T01:48:50;2.80;;;2.45;;
31114;SDS011;17764;47.152;9.828;2022-07-23T01:51:17;3.22;;;2.85;;
31114;SDS011;17764;47.152;9.828;2022-07-23T01:53:43;3.35;;;2.80;;
31114;SDS011;17764;47.152;9.828;2022-07-23T01:56:09;3.17;;;2.88;;
31114;SDS011;17764;47.152;9.828;2022-07-23T01:58:35;3.33;;;2.90;;
31114;SDS011;17764;47.152;9.828;2022-07-23T02:01:01;3.60;;;3.30;;
31114;SDS011;17764;47.152;9.828;2022-07-23T02:03:27;3.83;;;3.20;;
31114;SDS011;17764;47.152;9.828;2022-07-23T02:05:53;4.13;;;2.70;;
31114;SDS011;17764;47.152;9.828;2022-07-23T02:08:19;5.25;;;2.90;;
31114;SDS011;17764;47.152;9.828;2022-07-23T02:10:45;3.38;;;2.90;;
31114;SDS011;17764;47.152;9.828;2022-07-23T02:13:11;3.55;;;3.00;;
31114;SDS011;17764;47.152;9.828;2022-07-23T02:15:37;4.10;;;3.13;;
31114;SDS011;17764;47.152;9.828;2022-07-23T02:18:03;4.20;;;3.35;;
31114;SDS011;17764;47.152;9.828;2022-07-23T02:20:29;4.55;;;3.10;;
31114;SDS011;17764;47.152;9.828;2022-07-23T02:22:56;3.88;;;2.92;;
31114;SDS011;17764;47.152;9.828;2022-07-23T02:25:22;3.75;;;3.10;;
31114;SDS011;17764;47.152;9.828;2022-07-23T02:27:48;4.15;;;3.22;;
31114;SDS011;17764;47.152;9.828;2022-07-23T02:30:14;3.05;;;2.72;;
31114;SDS011;17764;47.152;9.828;2022-07-23T02:32:40;3.55;;;2.78;;
31114;SDS011;17764;47.152;9.828;2022-07-23T02:35:06;3.42;;;2.70;;
31114;SDS011;17764;47.152;9.828;2022-07-23T02:37:32;3.20;;;2.70;;
31114;SDS011;17764;47.152;9.828;2022-07-23T02:39:58;3.17;;;2.88;;
31114;SDS011;17764;47.152;9.828;2022-07-23T02:42:24;3.30;;;2.85;;
31114;SDS011;17764;47.152;9.828;2022-07-23T02:44:51;3.25;;;2.83;;
31114;SDS011;17764;47.152;9.828;2022-07-23T02:47:17;2.92;;;2.60;;
31114;SDS011;17764;47.152;9.828;2022-07-23T02:49:43;2.53;;;2.33;;
31114;SDS011;17764;47.152;9.828;2022-07-23T02:52:09;3.03;;;2.75;;
31114;SDS011;17764;47.152;9.828;2022-07-23T02:54:35;2.75;;;2.55;;
31114;SDS011;17764;47.152;9.828;2022-07-23T02:57:02;3.50;;;2.47;;
31114;SDS011;17764;47.152;9.828;2022-07-23T02:59:28;2.50;;;2.30;;
31114;SDS011;17764;47.152;9.828;2022-07-23T03:01:54;4.90;;;2.80;;
31114;SDS011;17764;47.152;9.828;2022-07-23T03:04:20;2.80;;;2.47;;
31114;SDS011;17764;47.152;9.828;2022-07-23T03:06:45;3.67;;;2.55;;
31114;SDS011;17764;47.152;9.828;2022-07-23T03:09:11;2.97;;;2.35;;
31114;SDS011;17764;47.152;9.828;2022-07-23T03:11:37;3.33;;;2.42;;
31114;SDS011;17764;47.152;9.828;2022-07-23T03:14:03;2.30;;;2.10;;
31114;SDS011;17764;47.152;9.828;2022-07-23T03:16:30;3.40;;;2.45;;
31114;SDS011;17764;47.152;9.828;2022-07-23T03:18:56;2.80;;;2.42;;
31114;SDS011;17764;47.152;9.828;2022-07-23T03:21:23;2.55;;;2.28;;
31114;SDS011;17764;47.152;9.828;2022-07-23T03:23:49;2.30;;;2.10;;
31114;SDS011;17764;47.152;9.828;2022-07-23T03:26:15;2.55;;;2.33;;
31114;SDS011;17764;47.152;9.828;2022-07-23T03:28:41;2.55;;;2.35;;
31114;SDS011;17764;47.152;9.828;2022-07-23T03:31:07;2.60;;;2.40;;
31114;SDS011;17764;47.152;9.828;2022-07-23T03:33:33;3.08;;;2.20;;
31114;SDS011;17764;47.152;9.828;2022-07-23T03:35:59;2.65;;;2.15;;
31114;SDS011;17764;47.152;9.828;2022-07-23T03:38:25;2.58;;;2.28;;
31114;SDS011;17764;47.152;9.828;2022-07-23T03:40:51;2.47;;;2.17;;
31114;SDS011;17764;47.152;9.828;2022-07-23T03:43:17;2.03;;;1.90;;
31114;SDS011;17764;47.152;9.828;2022-07-23T03:45:43;3.00;;;2.28;;
31114;SDS011;17764;47.152;9.828;2022-07-23T03:48:09;2.08;;;1.83;;
31114;SDS011;17764;47.152;9.828;2022-07-23T03:50:35;2.65;;;2.40;;
31114;SDS011;17764;47.152;9.828;2022-07-23T03:53:02;3.47;;;2.25;;
31114;SDS011;17764;47.152;9.828;2022-07-23T03:55:28;2.20;;;2.00;;
31114;SDS011;17764;47.152;9.828;2022-07-23T03:57:54;2.20;;;2.00;;
31114;SDS011;17764;47.152;9.828;2022-07-23T04:00:20;2.90;;;2.20;;
31114;SDS011;17764;47.152;9.828;2022-07-23T04:02:46;2.83;;;2.40;;
31114;SDS011;17764;47.152;9.828;2022-07-23T04:05:12;2.53;;;2.33;;
31114;SDS011;17764;47.152;9.828;2022-07-23T04:07:38;2.70;;;2.35;;
31114;SDS011;17764;47.152;9.828;2022-07-23T04:10:05;2.60;;;2.40;;
31114;SDS011;17764;47.152;9.828;2022-07-23T04:12:31;2.47;;;2.00;;
31114;SDS011;17764;47.152;9.828;2022-07-23T04:14:57;2.38;;;2.10;;
31114;SDS011;17764;47.152;9.828;2022-07-23T04:17:23;2.28;;;2.08;;
31114;SDS011;17764;47.152;9.828;2022-07-23T04:19:50;2.75;;;2.40;;
31114;SDS011;17764;47.152;9.828;2022-07-23T04:22:16;3.13;;;2.78;;
31114;SDS011;17764;47.152;9.828;2022-07-23T04:24:42;2.50;;;2.30;;
31114;SDS011;17764;47.152;9.828;2022-07-23T04:27:08;4.47;;;2.30;;
31114;SDS011;17764;47.152;9.828;2022-07-23T04:29:34;2.50;;;2.30;;
31114;SDS011;17764;47.152;9.828;2022-07-23T04:32:00;2.58;;;2.20;;
31114;SDS011;17764;47.152;9.828;2022-07-23T04:34:26;2.55;;;2.35;;
31114;SDS011;17764;47.152;9.828;2022-07-23T04:36:53;3.17;;;2.88;;
31114;SDS011;17764;47.152;9.828;2022-07-23T04:39:19;3.10;;;2.80;;
31114;SDS011;17764;47.152;9.828;2022-07-23T04:41:45;4.90;;;3.17;;
31114;SDS011;17764;47.152;9.828;2022-07-23T04:44:11;2.90;;;2.60;;
31114;SDS011;17764;47.152;9.828;2022-07-23T04:46:37;4.03;;;3.00;;
31114;SDS011;17764;47.152;9.828;2022-07-23T04:49:03;3.88;;;2.97;;
31114;SDS011;17764;47.152;9.828;2022-07-23T04:51:30;3.55;;;3.25;;
31114;SDS011;17764;47.152;9.828;2022-07-23T04:53:56;3.63;;;3.33;;
31114;SDS011;17764;47.152;9.828;2022-07-23T04:56:22;3.75;;;3.35;;
31114;SDS011;17764;47.152;9.828;2022-07-23T04:58:48;3.53;;;3.00;;
31114;SDS011;17764;47.152;9.828;2022-07-23T05:01:14;4.38;;;3.30;;
31114;SDS011;17764;47.152;9.828;2022-07-23T05:03:40;3.83;;;3.20;;
31114;SDS011;17764;47.152;9.828;2022-07-23T05:06:06;5.05;;;3.22;;
31114;SDS011;17764;47.152;9.828;2022-07-23T05:08:32;3.15;;;2.65;;
31114;SDS011;17764;47.152;9.828;2022-07-23T05:10:58;3.30;;;2.90;;
31114;SDS011;17764;47.152;9.828;2022-07-23T05:13:24;3.50;;;3.10;;
31114;SDS011;17764;47.152;9.828;2022-07-23T05:15:50;3.05;;;2.85;;
31114;SDS011;17764;47.152;9.828;2022-07-23T05:18:16;2.95;;;2.67;;
31114;SDS011;17764;47.152;9.828;2022-07-23T05:20:42;2.75;;;2.55;;
31114;SDS011;17764;47.152;9.828;2022-07-23T05:23:08;2.90;;;2.60;;
31114;SDS011;17764;47.152;9.828;2022-07-23T05:25:35;4.38;;;2.60;;
31114;SDS011;17764;47.152;9.828;2022-07-23T05:28:02;4.35;;;2.53;;
31114;SDS011;17764;47.152;9.828;2022-07-23T05:30:28;2.83;;;2.63;;
31114;SDS011;17764;47.152;9.828;2022-07-23T05:32:54;3.33;;;3.00;;
31114;SDS011;17764;47.152;9.828;2022-07-23T05:35:20;3.20;;;2.50;;
31114;SDS011;17764;47.152;9.828;2022-07-23T05:37:46;2.90;;;2.70;;
31114;SDS011;17764;47.152;9.828;2022-07-23T05:40:12;3.97;;;2.40;;
31114;SDS011;17764;47.152;9.828;2022-07-23T05:42:39;3.45;;;2.40;;
31114;SDS011;17764;47.152;9.828;2022-07-23T05:45:07;3.30;;;2.60;;
31114;SDS011;17764;47.152;9.828;2022-07-23T05:47:46;3.55;;;2.55;;
31114;SDS011;17764;47.152;9.828;2022-07-23T05:50:13;2.63;;;2.22;;
31114;SDS011;17764;47.152;9.828;2022-07-23T05:52:39;3.10;;;2.45;;
31114;SDS011;17764;47.152;9.828;2022-07-23T05:55:06;3.17;;;2.88;;
31114;SDS011;17764;47.152;9.828;2022-07-23T05:57:32;2.92;;;2.30;;
31114;SDS011;17764;47.152;9.828;2022-07-23T05:59:58;2.92;;;2.13;;
31114;SDS011;17764;47.152;9.828;2022-07-23T06:02:24;3.80;;;2.50;;
31114;SDS011;17764;47.152;9.828;2022-07-23T06:04:50;3.30;;;2.60;;
31114;SDS011;17764;47.152;9.828;2022-07-23T06:07:16;2.55;;;2.20;;
31114;SDS011;17764;47.152;9.828;2022-07-23T06:09:42;2.65;;;2.38;;
31114;SDS011;17764;47.152;9.828;2022-07-23T06:12:08;2.40;;;2.20;;
31114;SDS011;17764;47.152;9.828;2022-07-23T06:14:34;2.42;;;2.00;;
31114;SDS011;17764;47.152;9.828;2022-07-23T06:17:00;2.40;;;2.20;;
31114;SDS011;17764;47.152;9.828;2022-07-23T06:19:26;2.67;;;2.10;;
31114;SDS011;17764;47.152;9.828;2022-07-23T06:21:52;2.40;;;1.95;;
31114;SDS011;17764;47.152;9.828;2022-07-23T06:24:18;2.67;;;2.00;;
31114;SDS011;17764;47.152;9.828;2022-07-23T06:26:44;2.28;;;2.08;;
31114;SDS011;17764;47.152;9.828;2022-07-23T06:29:10;2.70;;;2.50;;
31114;SDS011;17764;47.152;9.828;2022-07-23T06:31:36;2.42;;;2.20;;
31114;SDS011;17764;47.152;9.828;2022-07-23T06:34:03;2.30;;;2.10;;
31114;SDS011;17764;47.152;9.828;2022-07-23T06:36:29;3.72;;;2.60;;
31114;SDS011;17764;47.152;9.828;2022-07-23T06:38:55;3.00;;;2.45;;
31114;SDS011;17764;47.152;9.828;2022-07-23T06:41:21;4.63;;;2.40;;
31114;SDS011;17764;47.152;9.828;2022-07-23T06:43:47;2.55;;;2.35;;
31114;SDS011;17764;47.152;9.828;2022-07-23T06:46:13;2.47;;;2.28;;
31114;SDS011;17764;47.152;9.828;2022-07-23T06:48:39;2.67;;;2.47;;
31114;SDS011;17764;47.152;9.828;2022-07-23T06:51:05;3.13;;;2.65;;
31114;SDS011;17764;47.152;9.828;2022-07-23T06:53:31;2.78;;;2.55;;
31114;SDS011;17764;47.152;9.828;2022-07-23T06:55:57;3.17;;;2.38;;
31114;SDS011;17764;47.152;9.828;2022-07-23T06:58:24;2.85;;;2.55;;
31114;SDS011;17764;47.152;9.828;2022-07-23T07:00:50;3.25;;;2.97;;
31114;SDS011;17764;47.152;9.828;2022-07-23T07:03:17;2.55;;;2.35;;
31114;SDS011;17764;47.152;9.828;2022-07-23T07:05:43;3.28;;;2.97;;
31114;SDS011;17764;47.152;9.828;2022-07-23T07:08:09;3.40;;;3.10;;
31114;SDS011;17764;47.152;9.828;2022-07-23T07:10:35;4.00;;;3.60;;
31114;SDS011;17764;47.152;9.828;2022-07-23T07:13:01;3.35;;;3.08;;
31114;SDS011;17764;47.152;9.828;2022-07-23T07:15:27;3.20;;;2.90;;
31114;SDS011;17764;47.152;9.828;2022-07-23T07:17:53;3.42;;;3.13;;
31114;SDS011;17764;47.152;9.828;2022-07-23T07:20:19;3.63;;;3.33;;
31114;SDS011;17764;47.152;9.828;2022-07-23T07:22:46;3.60;;;3.10;;
31114;SDS011;17764;47.152;9.828;2022-07-23T07:25:12;3.22;;;2.95;;
31114;SDS011;17764;47.152;9.828;2022-07-23T07:27:38;3.67;;;3.38;;
31114;SDS011;17764;47.152;9.828;2022-07-23T07:30:04;3.22;;;2.92;;
31114;SDS011;17764;47.152;9.828;2022-07-23T07:32:30;3.03;;;2.83;;
31114;SDS011;17764;47.152;9.828;2022-07-23T07:35:01;4.57;;;3.25;;
31114;SDS011;17764;47.152;9.828;2022-07-23T07:37:27;3.58;;;3.28;;
31114;SDS011;17764;47.152;9.828;2022-07-23T07:39:54;3.28;;;2.97;;
31114;SDS011;17764;47.152;9.828;2022-07-23T07:42:20;4.82;;;3.25;;
31114;SDS011;17764;47.152;9.828;2022-07-23T07:44:46;3.55;;;3.25;;
31114;SDS011;17764;47.152;9.828;2022-07-23T07:47:12;3.58;;;3.03;;
31114;SDS011;17764;47.152;9.828;2022-07-23T07:49:40;3.40;;;3.10;;
31114;SDS011;17764;47.152;9.828;2022-07-23T07:52:06;3.55;;;3.25;;
31114;SDS011;17764;47.152;9.828;2022-07-23T07:54:32;3.97;;;3.25;;
31114;SDS011;17764;47.152;9.828;2022-07-23T07:56:58;3.70;;;3.03;;
31114;SDS011;17764;47.152;9.828;2022-07-23T07:59:24;2.80;;;2.60;;
31114;SDS011;17764;47.152;9.828;2022-07-23T08:01:50;4.07;;;2.90;;
31114;SDS011;17764;47.152;9.828;2022-07-23T08:04:16;3.13;;;2.85;;
31114;SDS011;17764;47.152;9.828;2022-07-23T08:06:43;3.30;;;3.00;;
31114;SDS011;17764;47.152;9.828;2022-07-23T08:09:09;2.95;;;2.75;;
31114;SDS011;17764;47.152;9.828;2022-07-23T08:11:35;3.22;;;2.92;;
31114;SDS011;17764;47.152;9.828;2022-07-23T08:14:01;3.42;;;3.10;;
31114;SDS011;17764;47.152;9.828;2022-07-23T08:16:27;4.28;;;3.03;;
31114;SDS011;17764;47.152;9.828;2022-07-23T08:18:53;3.53;;;3.20;;
31114;SDS011;17764;47.152;9.828;2022-07-23T08:21:19;3.20;;;2.90;;
31114;SDS011;17764;47.152;9.828;2022-07-23T08:23:45;3.28;;;2.97;;
31114;SDS011;17764;47.152;9.828;2022-07-23T08:26:11;3.40;;;3.10;;
31114;SDS011;17764;47.152;9.828;2022-07-23T08:28:37;3.78;;;2.83;;
31114;SDS011;17764;47.152;9.828;2022-07-23T08:31:04;3.22;;;2.72;;
31114;SDS011;17764;47.152;9.828;2022-07-23T08:33:32;3.08;;;2.78;;
31114;SDS011;17764;47.152;9.828;2022-07-23T08:35:59;3.22;;;2.85;;
31114;SDS011;17764;47.152;9.828;2022-07-23T08:38:25;3.15;;;2.85;;
31114;SDS011;17764;47.152;9.828;2022-07-23T08:40:52;4.50;;;3.30;;
31114;SDS011;17764;47.152;9.828;2022-07-23T08:43:20;3.38;;;2.90;;
31114;SDS011;17764;47.152;9.828;2022-07-23T08:45:49;4.25;;;3.00;;
31114;SDS011;17764;47.152;9.828;2022-07-23T08:48:17;3.10;;;2.88;;
31114;SDS011;17764;47.152;9.828;2022-07-23T08:50:45;4.43;;;3.03;;
31114;SDS011;17764;47.152;9.828;2022-07-23T08:53:12;4.13;;;2.83;;
31114;SDS011;17764;47.152;9.828;2022-07-23T08:55:38;3.40;;;3.10;;
31114;SDS011;17764;47.152;9.828;2022-07-23T08:58:04;3.78;;;2.88;;
31114;SDS011;17764;47.152;9.828;2022-07-23T09:00:30;2.92;;;2.72;;
31114;SDS011;17764;47.152;9.828;2022-07-23T09:02:57;2.78;;;2.58;;
31114;SDS011;17764;47.152;9.828;2022-07-23T09:05:23;3.38;;;3.08;;
31114;SDS011;17764;47.152;9.828;2022-07-23T09:10:44;3.10;;;2.70;;
31114;SDS011;17764;47.152;9.828;2022-07-23T09:18:48;3.22;;;2.92;;
31114;SDS011;17764;47.152;9.828;2022-07-23T09:23:41;3.50;;;3.17;;
31114;SDS011;17764;47.152;9.828;2022-07-23T09:26:22;3.80;;;2.78;;
31114;SDS011;17764;47.152;9.828;2022-07-23T09:31:54;3.20;;;2.90;;
31114;SDS011;17764;47.152;9.828;2022-07-23T09:34:25;4.32;;;3.22;;
31114;SDS011;17764;47.152;9.828;2022-07-23T09:36:56;3.35;;;2.95;;
31114;SDS011;17764;47.152;9.828;2022-07-23T09:39:35;2.90;;;2.60;;
31114;SDS011;17764;47.152;9.828;2022-07-23T09:42:20;3.15;;;2.80;;
31114;SDS011;17764;47.152;9.828;2022-07-23T09:44:48;2.97;;;2.78;;
31114;SDS011;17764;47.152;9.828;2022-07-23T09:47:19;3.80;;;2.95;;
31114;SDS011;17764;47.152;9.828;2022-07-23T09:50:02;3.45;;;2.83;;
31114;SDS011;17764;47.152;9.828;2022-07-23T09:52:32;4.13;;;2.90;;
31114;SDS011;17764;47.152;9.828;2022-07-23T09:55:00;5.18;;;3.40;;
31114;SDS011;17764;47.152;9.828;2022-07-23T09:57:28;3.85;;;3.03;;
31114;SDS011;17764;47.152;9.828;2022-07-23T09:59:56;3.33;;;3.03;;
31114;SDS011;17764;47.152;9.828;2022-07-23T10:02:25;3.40;;;3.10;;
31114;SDS011;17764;47.152;9.828;2022-07-23T10:04:53;3.20;;;2.90;;
31114;SDS011;17764;47.152;9.828;2022-07-23T10:07:21;3.40;;;3.13;;
31114;SDS011;17764;47.152;9.828;2022-07-23T10:09:48;3.42;;;3.15;;
31114;SDS011;17764;47.152;9.828;2022-07-23T10:12:17;5.43;;;3.25;;
31114;SDS011;17764;47.152;9.828;2022-07-23T10:14:50;3.38;;;3.17;;
31114;SDS011;17764;47.152;9.828;2022-07-23T10:17:16;3.17;;;2.88;;
31114;SDS011;17764;47.152;9.828;2022-07-23T10:19:42;3.50;;;3.20;;
31114;SDS011;17764;47.152;9.828;2022-07-23T10:22:18;3.92;;;3.55;;
31114;SDS011;17764;47.152;9.828;2022-07-23T10:25:04;5.28;;;3.92;;
31114;SDS011;17764;47.152;9.828;2022-07-23T10:30:09;4.45;;;4.05;;
31114;SDS011;17764;47.152;9.828;2022-07-23T10:35:37;4.13;;;3.70;;
31114;SDS011;17764;47.152;9.828;2022-07-23T10:38:32;4.00;;;3.70;;
31114;SDS011;17764;47.152;9.828;2022-07-23T10:44:10;4.90;;;4.45;;
31114;SDS011;17764;47.152;9.828;2022-07-23T10:46:54;5.10;;;4.55;;
31114;SDS011;17764;47.152;9.828;2022-07-23T10:49:28;5.75;;;4.60;;
31114;SDS011;17764;47.152;9.828;2022-07-23T10:54:39;4.32;;;3.92;;
31114;SDS011;17764;47.152;9.828;2022-07-23T11:00:36;3.95;;;3.65;;
31114;SDS011;17764;47.152;9.828;2022-07-23T11:02:34;4.55;;;4.05;;
31114;SDS011;17764;47.152;9.828;2022-07-23T11:05:04;5.03;;;4.35;;
31114;SDS011;17764;47.152;9.828;2022-07-23T11:07:31;5.35;;;3.72;;
31114;SDS011;17764;47.152;9.828;2022-07-23T11:09:57;4.45;;;4.05;;
31114;SDS011;17764;47.152;9.828;2022-07-23T11:17:25;4.95;;;3.90;;
31114;SDS011;17764;47.152;9.828;2022-07-23T11:25:10;3.88;;;3.58;;
31114;SDS011;17764;47.152;9.828;2022-07-23T11:27:40;4.43;;;4.03;;
31114;SDS011;17764;47.152;9.828;2022-07-23T11:30:06;4.57;;;4.18;;
31114;SDS011;17764;47.152;9.828;2022-07-23T11:32:35;5.30;;;4.22;;
31114;SDS011;17764;47.152;9.828;2022-07-23T11:37:47;4.53;;;4.10;;
31114;SDS011;17764;47.152;9.828;2022-07-23T11:40:14;5.03;;;4.50;;
31114;SDS011;17764;47.152;9.828;2022-07-23T11:47:58;5.70;;;4.18;;
31114;SDS011;17764;47.152;9.828;2022-07-23T11:50:24;5.47;;;4.53;;
31114;SDS011;17764;47.152;9.828;2022-07-23T11:52:51;4.97;;;4.30;;
31114;SDS011;17764;47.152;9.828;2022-07-23T11:55:17;5.20;;;4.80;;
31114;SDS011;17764;47.152;9.828;2022-07-23T11:57:44;5.13;;;4.60;;
31114;SDS011;17764;47.152;9.828;2022-07-23T12:00:14;5.00;;;4.50;;
31114;SDS011;17764;47.152;9.828;2022-07-23T12:02:42;6.80;;;4.80;;
31114;SDS011;17764;47.152;9.828;2022-07-23T12:05:16;5.53;;;4.30;;
31114;SDS011;17764;47.152;9.828;2022-07-23T12:07:44;5.75;;;4.75;;
31114;SDS011;17764;47.152;9.828;2022-07-23T12:12:45;6.20;;;4.43;;
31114;SDS011;17764;47.152;9.828;2022-07-23T12:15:12;8.50;;;5.15;;
31114;SDS011;17764;47.152;9.828;2022-07-23T12:17:39;4.47;;;4.07;;
31114;SDS011;17764;47.152;9.828;2022-07-23T12:20:08;6.47;;;4.85;;
31114;SDS011;17764;47.152;9.828;2022-07-23T12:22:36;6.30;;;4.80;;
31114;SDS011;17764;47.152;9.828;2022-07-23T12:25:08;7.43;;;4.50;;
31114;SDS011;17764;47.152;9.828;2022-07-23T12:27:39;8.05;;;5.38;;
31114;SDS011;17764;47.152;9.828;2022-07-23T12:33:06;5.15;;;4.70;;
31114;SDS011;17764;47.152;9.828;2022-07-23T12:35:38;8.00;;;4.80;;
31114;SDS011;17764;47.152;9.828;2022-07-23T12:38:07;7.15;;;4.78;;
31114;SDS011;17764;47.152;9.828;2022-07-23T12:40:37;7.30;;;4.50;;
31114;SDS011;17764;47.152;9.828;2022-07-23T12:43:08;5.10;;;4.60;;
31114;SDS011;17764;47.152;9.828;2022-07-23T12:45:43;4.80;;;4.40;;
31114;SDS011;17764;47.152;9.828;2022-07-23T12:48:18;4.68;;;4.28;;
31114;SDS011;17764;47.152;9.828;2022-07-23T12:50:49;4.80;;;4.30;;
31114;SDS011;17764;47.152;9.828;2022-07-23T12:53:20;6.80;;;5.13;;
31114;SDS011;17764;47.152;9.828;2022-07-23T12:55:49;5.95;;;4.40;;
31114;SDS011;17764;47.152;9.828;2022-07-23T12:58:16;5.15;;;4.63;;
31114;SDS011;17764;47.152;9.828;2022-07-23T13:00:58;6.15;;;4.15;;
31114;SDS011;17764;47.152;9.828;2022-07-23T13:03:25;5.03;;;4.53;;
31114;SDS011;17764;47.152;9.828;2022-07-23T13:05:53;5.43;;;4.38;;
31114;SDS011;17764;47.152;9.828;2022-07-23T13:08:19;5.30;;;4.32;;
31114;SDS011;17764;47.152;9.828;2022-07-23T13:10:46;5.10;;;4.70;;
31114;SDS011;17764;47.152;9.828;2022-07-23T13:13:14;5.07;;;4.40;;
31114;SDS011;17764;47.152;9.828;2022-07-23T13:15:40;4.75;;;4.25;;
31114;SDS011;17764;47.152;9.828;2022-07-23T13:18:06;5.50;;;4.38;;
31114;SDS011;17764;47.152;9.828;2022-07-23T13:20:32;4.20;;;3.80;;
31114;SDS011;17764;47.152;9.828;2022-07-23T13:22:59;4.57;;;4.18;;
31114;SDS011;17764;47.152;9.828;2022-07-23T13:25:26;4.80;;;4.25;;
31114;SDS011;17764;47.152;9.828;2022-07-23T13:27:52;4.53;;;4.13;;
31114;SDS011;17764;47.152;9.828;2022-07-23T13:30:17;4.95;;;4.30;;
31114;SDS011;17764;47.152;9.828;2022-07-23T13:32:43;4.35;;;4.00;;
31114;SDS011;17764;47.152;9.828;2022-07-23T13:35:09;5.40;;;4.03;;
31114;SDS011;17764;47.152;9.828;2022-07-23T13:37:37;4.72;;;4.32;;
31114;SDS011;17764;47.152;9.828;2022-07-23T13:40:03;4.63;;;4.22;;
31114;SDS011;17764;47.152;9.828;2022-07-23T13:42:29;7.80;;;4.72;;
31114;SDS011;17764;47.152;9.828;2022-07-23T13:44:55;5.35;;;4.63;;
31114;SDS011;17764;47.152;9.828;2022-07-23T13:47:21;5.20;;;4.70;;
31114;SDS011;17764;47.152;9.828;2022-07-23T13:49:47;5.25;;;4.28;;
31114;SDS011;17764;47.152;9.828;2022-07-23T13:52:13;6.07;;;4.45;;
31114;SDS011;17764;47.152;9.828;2022-07-23T13:54:40;6.20;;;4.70;;
31114;SDS011;17764;47.152;9.828;2022-07-23T13:57:06;6.18;;;5.57;;
31114;SDS011;17764;47.152;9.828;2022-07-23T13:59:34;5.78;;;5.28;;
31114;SDS011;17764;47.152;9.828;2022-07-23T14:02:00;6.50;;;5.68;;
31114;SDS011;17764;47.152;9.828;2022-07-23T14:04:26;5.63;;;5.13;;
31114;SDS011;17764;47.152;9.828;2022-07-23T14:06:52;5.95;;;4.97;;
31114;SDS011;17764;47.152;9.828;2022-07-23T14:09:18;5.70;;;5.10;;
31114;SDS011;17764;47.152;9.828;2022-07-23T14:11:44;6.07;;;5.18;;
31114;SDS011;17764;47.152;9.828;2022-07-23T14:14:10;5.85;;;4.95;;
31114;SDS011;17764;47.152;9.828;2022-07-23T14:16:36;5.15;;;4.68;;
31114;SDS011;17764;47.152;9.828;2022-07-23T14:19:02;5.15;;;4.38;;
31114;SDS011;17764;47.152;9.828;2022-07-23T14:21:28;6.07;;;5.05;;
31114;SDS011;17764;47.152;9.828;2022-07-23T14:23:54;5.10;;;4.70;;
31114;SDS011;17764;47.152;9.828;2022-07-23T14:26:20;4.97;;;4.57;;
31114;SDS011;17764;47.152;9.828;2022-07-23T14:28:46;5.22;;;4.72;;
31114;SDS011;17764;47.152;9.828;2022-07-23T14:31:13;4.78;;;4.38;;
31114;SDS011;17764;47.152;9.828;2022-07-23T14:33:39;5.90;;;4.47;;
31114;SDS011;17764;47.152;9.828;2022-07-23T14:36:05;5.45;;;4.57;;
31114;SDS011;17764;47.152;9.828;2022-07-23T14:38:31;5.85;;;4.20;;
31114;SDS011;17764;47.152;9.828;2022-07-23T14:40:57;4.97;;;4.57;;
31114;SDS011;17764;47.152;9.828;2022-07-23T14:43:23;4.97;;;4.50;;
31114;SDS011;17764;47.152;9.828;2022-07-23T14:45:49;4.95;;;4.45;;
31114;SDS011;17764;47.152;9.828;2022-07-23T14:48:15;4.97;;;4.53;;
31114;SDS011;17764;47.152;9.828;2022-07-23T14:50:41;5.15;;;4.40;;
31114;SDS011;17764;47.152;9.828;2022-07-23T14:53:07;5.75;;;4.63;;
31114;SDS011;17764;47.152;9.828;2022-07-23T14:55:33;5.22;;;4.65;;
31114;SDS011;17764;47.152;9.828;2022-07-23T14:58:00;5.85;;;5.07;;
31114;SDS011;17764;47.152;9.828;2022-07-23T15:00:26;5.53;;;5.00;;
31114;SDS011;17764;47.152;9.828;2022-07-23T15:02:52;5.50;;;5.00;;
31114;SDS011;17764;47.152;9.828;2022-07-23T15:05:18;5.38;;;4.85;;
31114;SDS011;17764;47.152;9.828;2022-07-23T15:07:45;5.65;;;4.95;;
31114;SDS011;17764;47.152;9.828;2022-07-23T15:10:11;4.95;;;4.45;;
31114;SDS011;17764;47.152;9.828;2022-07-23T15:12:37;5.97;;;4.57;;
31114;SDS011;17764;47.152;9.828;2022-07-23T15:15:04;5.13;;;4.63;;
31114;SDS011;17764;47.152;9.828;2022-07-23T15:17:30;6.97;;;4.65;;
31114;SDS011;17764;47.152;9.828;2022-07-23T15:19:56;5.97;;;4.38;;
31114;SDS011;17764;47.152;9.828;2022-07-23T15:22:22;4.85;;;4.35;;
31114;SDS011;17764;47.152;9.828;2022-07-23T15:24:48;5.50;;;4.72;;
31114;SDS011;17764;47.152;9.828;2022-07-23T15:27:14;5.32;;;4.80;;
31114;SDS011;17764;47.152;9.828;2022-07-23T15:29:42;5.80;;;4.60;;
31114;SDS011;17764;47.152;9.828;2022-07-23T15:32:08;6.53;;;5.20;;
31114;SDS011;17764;47.152;9.828;2022-07-23T15:34:35;6.30;;;5.15;;
31114;SDS011;17764;47.152;9.828;2022-07-23T15:37:01;5.38;;;4.80;;
31114;SDS011;17764;47.152;9.828;2022-07-23T15:39:30;5.25;;;4.75;;